Time;durP1;ratioP1;P1;durP2;ratioP2;P2;SDS_P1;SDS_P2;PMS_P1;PMS_P2;Temp;Humidity;BMP_temperature;BMP_pressure;BME280_temperature;BME280_humidity;BME280_pressure;Samples;Min_cycle;Max_cycle;Signal;HPM_P1;HPM_P2
2021/03/02 00:00:50;;;;;;;149.65;66.22;;;;;;;;;;5012523;28;20792;-87
2021/03/02 00:03:16;;;;;;;122.60;61.90;;;;;;;;;;5012606;28;20387;-85
2021/03/02 00:05:44;;;;;;;282.17;84.78;;;;;;;;;;5013599;28;20375;-86
2021/03/02 00:08:10;;;;;;;206.93;69.18;;;;;;;;;;5013314;28;20426;-88
2021/03/02 00:10:39;;;;;;;119.83;58.23;;;;;;;;;;5014175;28;20509;-86
2021/03/02 00:13:05;;;;;;;123.00;57.50;;;;;;;;;;5016077;28;20388;-85
2021/03/02 00:15:31;;;;;;;123.05;58.17;;;;;;;;;;5016588;28;20916;-87
2021/03/02 00:17:59;;;;;;;118.85;55.75;;;;;;;;;;5014739;28;20386;-87
2021/03/02 00:20:25;;;;;;;186.88;65.95;;;;;;;;;;5012152;28;20418;-88
2021/03/02 00:22:57;;;;;;;165.53;68.63;;;;;;;;;;5012830;28;20395;-88
2021/03/02 00:25:26;;;;;;;160.68;63.55;;;;;;;;;;5013085;28;20483;-82
2021/03/02 00:27:53;;;;;;;153.02;69.90;;;;;;;;;;5013470;28;20379;-91
2021/03/02 00:30:20;;;;;;;132.75;63.47;;;;;;;;;;5013145;28;20403;-87
2021/03/02 00:32:47;;;;;;;288.33;87.28;;;;;;;;;;5013029;28;20374;-90
2021/03/02 00:35:13;;;;;;;154.60;67.22;;;;;;;;;;5011462;28;20480;-87
2021/03/02 00:37:39;;;;;;;193.93;70.27;;;;;;;;;;5011634;28;20599;-84
2021/03/02 00:40:06;;;;;;;237.93;78.93;;;;;;;;;;5011460;28;20466;-85
2021/03/02 00:42:31;;;;;;;182.85;71.55;;;;;;;;;;5011551;28;20379;-86
2021/03/02 00:44:57;;;;;;;223.35;78.22;;;;;;;;;;5011624;28;20388;-85
2021/03/02 00:47:23;;;;;;;158.63;69.78;;;;;;;;;;5012824;28;20383;-88
2021/03/02 00:49:50;;;;;;;187.93;74.13;;;;;;;;;;5011440;28;20406;-86
2021/03/02 00:52:17;;;;;;;176.68;72.30;;;;;;;;;;5011343;28;20389;-86
2021/03/02 00:54:43;;;;;;;141.77;67.10;;;;;;;;;;5011412;28;20410;-88
2021/03/02 00:57:09;;;;;;;128.07;61.50;;;;;;;;;;5011158;28;20383;-84
2021/03/02 00:59:35;;;;;;;123.27;61.43;;;;;;;;;;5011290;28;20371;-87
2021/03/02 01:02:01;;;;;;;123.72;59.72;;;;;;;;;;5011243;28;20380;-87
2021/03/02 01:04:26;;;;;;;163.73;64.05;;;;;;;;;;5010981;28;20379;-83
2021/03/02 01:06:52;;;;;;;194.52;71.07;;;;;;;;;;5011346;28;20411;-89
2021/03/02 01:09:18;;;;;;;127.83;55.93;;;;;;;;;;5012201;28;20375;-86
2021/03/02 01:11:47;;;;;;;127.63;54.25;;;;;;;;;;5011121;28;20386;-89
2021/03/02 01:14:14;;;;;;;240.03;57.43;;;;;;;;;;5010474;28;22304;-84
2021/03/02 01:16:40;;;;;;;244.32;62.63;;;;;;;;;;5012211;28;20380;-89
2021/03/02 01:19:06;;;;;;;228.87;57.50;;;;;;;;;;5012023;28;20414;-86
2021/03/02 01:21:32;;;;;;;169.18;42.78;;;;;;;;;;5010625;28;20469;-84
2021/03/02 01:23:58;;;;;;;84.50;28.55;;;;;;;;;;5011924;28;20433;-85
2021/03/02 01:26:24;;;;;;;40.85;20.85;;;;;;;;;;5010647;28;20399;-85
2021/03/02 01:28:50;;;;;;;58.53;22.73;;;;;;;;;;5010846;28;20387;-85
2021/03/02 01:31:16;;;;;;;84.70;26.00;;;;;;;;;;5010757;28;20410;-91
2021/03/02 01:33:42;;;;;;;112.93;30.50;;;;;;;;;;5010900;28;20384;-88
2021/03/02 01:36:08;;;;;;;28.42;16.55;;;;;;;;;;5011948;28;20380;-91
2021/03/02 01:38:34;;;;;;;53.50;20.80;;;;;;;;;;5010929;28;20379;-89
2021/03/02 01:41:00;;;;;;;39.53;18.95;;;;;;;;;;5010401;28;20515;-85
2021/03/02 01:43:26;;;;;;;34.20;17.25;;;;;;;;;;5010736;28;20494;-85
2021/03/02 01:45:52;;;;;;;42.50;19.33;;;;;;;;;;5010408;28;20390;-85
2021/03/02 01:48:18;;;;;;;50.60;20.77;;;;;;;;;;5010428;28;20744;-88
2021/03/02 01:50:44;;;;;;;46.53;20.13;;;;;;;;;;5010512;28;20411;-87
2021/03/02 01:53:10;;;;;;;58.15;21.05;;;;;;;;;;5010538;28;20439;-86
2021/03/02 01:55:36;;;;;;;48.45;18.75;;;;;;;;;;5011395;28;20538;-87
2021/03/02 01:58:02;;;;;;;34.25;19.50;;;;;;;;;;5010219;28;20437;-90
2021/03/02 02:00:30;;;;;;;51.58;20.30;;;;;;;;;;5010264;28;21103;-84
2021/03/02 02:03:08;;;;;;;62.85;21.17;;;;;;;;;;5011341;28;20773;-87
2021/03/02 02:05:37;;;;;;;64.07;22.10;;;;;;;;;;5010301;28;20415;-89
2021/03/02 02:08:06;;;;;;;73.57;21.77;;;;;;;;;;5011474;28;20370;-85
2021/03/02 02:10:50;;;;;;;119.80;26.20;;;;;;;;;;5009935;28;20417;-87
2021/03/02 02:13:23;;;;;;;96.53;25.30;;;;;;;;;;5010031;28;20379;-87
2021/03/02 02:15:49;;;;;;;41.97;17.98;;;;;;;;;;5010349;28;20375;-89
2021/03/02 02:18:19;;;;;;;48.00;18.35;;;;;;;;;;5011481;28;20461;-88
2021/03/02 02:20:48;;;;;;;51.72;18.85;;;;;;;;;;5011346;28;20734;-86
2021/03/02 02:23:32;;;;;;;55.03;20.80;;;;;;;;;;5011019;28;20382;-87
2021/03/02 02:26:17;;;;;;;64.10;20.48;;;;;;;;;;5011073;28;21031;-92
2021/03/02 02:28:44;;;;;;;60.80;20.90;;;;;;;;;;5009937;28;20376;-89
2021/03/02 02:31:11;;;;;;;57.03;21.92;;;;;;;;;;5009750;28;20403;-90
2021/03/02 02:33:39;;;;;;;48.10;19.17;;;;;;;;;;5009064;28;20764;-89
2021/03/02 02:36:07;;;;;;;38.38;16.63;;;;;;;;;;5010979;28;20477;-89
2021/03/02 02:38:33;;;;;;;34.50;15.95;;;;;;;;;;5009720;28;20391;-88
2021/03/02 02:41:00;;;;;;;26.95;16.63;;;;;;;;;;5011018;28;20410;-86
2021/03/02 02:43:26;;;;;;;62.28;20.90;;;;;;;;;;5009745;28;20444;-85
2021/03/02 02:45:53;;;;;;;48.65;20.08;;;;;;;;;;5009543;28;20367;-90
2021/03/02 02:48:19;;;;;;;35.63;17.35;;;;;;;;;;5009453;28;20462;-87
2021/03/02 02:50:45;;;;;;;27.08;16.02;;;;;;;;;;5009447;28;20465;-87
2021/03/02 02:53:12;;;;;;;73.13;23.95;;;;;;;;;;5009546;28;20442;-85
2021/03/02 02:55:44;;;;;;;49.58;19.95;;;;;;;;;;5010673;28;20375;-87
2021/03/02 02:58:10;;;;;;;42.85;19.20;;;;;;;;;;5009706;28;20909;-90
2021/03/02 03:00:37;;;;;;;27.97;14.93;;;;;;;;;;5010679;28;20920;-85
2021/03/02 03:03:08;;;;;;;57.00;20.73;;;;;;;;;;5010751;28;20382;-88
2021/03/02 03:05:34;;;;;;;59.75;22.38;;;;;;;;;;5009721;28;20442;-87
2021/03/02 03:08:09;;;;;;;32.70;18.52;;;;;;;;;;5009931;28;20376;-90
2021/03/02 03:10:35;;;;;;;48.65;20.88;;;;;;;;;;5009700;28;20395;-91
2021/03/02 03:13:03;;;;;;;66.10;23.10;;;;;;;;;;5009835;28;20384;-85
2021/03/02 03:15:31;;;;;;;53.65;21.33;;;;;;;;;;5009315;28;20478;-85
2021/03/02 03:17:58;;;;;;;32.88;19.67;;;;;;;;;;5009249;28;20478;-91
2021/03/02 03:20:26;;;;;;;57.53;22.33;;;;;;;;;;5009394;28;20741;-87
2021/03/02 03:22:53;;;;;;;54.28;22.48;;;;;;;;;;5009256;28;20622;-89
2021/03/02 03:25:19;;;;;;;43.90;20.95;;;;;;;;;;5009111;28;20395;-84
2021/03/02 03:27:47;;;;;;;46.57;20.80;;;;;;;;;;5010481;28;20393;-91
2021/03/02 03:30:13;;;;;;;45.22;19.60;;;;;;;;;;5009024;28;20420;-88
2021/03/02 03:32:40;;;;;;;86.53;23.73;;;;;;;;;;5009438;28;20383;-86
2021/03/02 03:35:06;;;;;;;88.22;23.77;;;;;;;;;;5009277;28;20383;-90
2021/03/02 03:37:32;;;;;;;68.38;21.25;;;;;;;;;;5009155;28;20426;-90
2021/03/02 03:39:58;;;;;;;142.93;30.63;;;;;;;;;;5009554;28;20372;-87
2021/03/02 03:42:24;;;;;;;116.53;25.17;;;;;;;;;;5008988;28;20394;-85
2021/03/02 03:44:50;;;;;;;159.80;29.17;;;;;;;;;;5010793;28;20398;-89
2021/03/02 03:47:16;;;;;;;132.75;28.50;;;;;;;;;;5012836;28;20461;-86
2021/03/02 03:49:42;;;;;;;88.78;24.70;;;;;;;;;;5012482;28;20390;-86
2021/03/02 03:52:09;;;;;;;62.75;22.05;;;;;;;;;;5012962;28;20398;-87
2021/03/02 03:54:35;;;;;;;45.28;21.30;;;;;;;;;;5012710;28;20468;-87
2021/03/02 03:57:02;;;;;;;39.42;20.52;;;;;;;;;;5015566;28;21011;-85
2021/03/02 03:59:28;;;;;;;36.95;20.92;;;;;;;;;;5017624;28;20451;-88
2021/03/02 04:01:55;;;;;;;39.60;20.77;;;;;;;;;;5014437;28;20458;-88
2021/03/02 04:04:22;;;;;;;52.65;21.80;;;;;;;;;;5014496;28;20371;-90
2021/03/02 04:06:49;;;;;;;35.13;20.83;;;;;;;;;;5013253;28;20750;-87
2021/03/02 04:09:15;;;;;;;41.93;20.27;;;;;;;;;;5013494;28;20375;-88
2021/03/02 04:11:41;;;;;;;36.70;20.48;;;;;;;;;;5012207;28;20955;-85
2021/03/02 04:14:09;;;;;;;41.75;20.42;;;;;;;;;;5012317;28;20398;-86
2021/03/02 04:16:36;;;;;;;45.97;22.40;;;;;;;;;;5012346;28;20877;-90
2021/03/02 04:19:02;;;;;;;46.25;21.38;;;;;;;;;;5013213;28;20375;-89
2021/03/02 04:21:28;;;;;;;36.80;20.50;;;;;;;;;;5013317;28;20944;-86
2021/03/02 04:23:54;;;;;;;40.08;19.63;;;;;;;;;;5012416;28;20383;-90
2021/03/02 04:26:20;;;;;;;22.00;17.42;;;;;;;;;;5013007;28;20438;-87
2021/03/02 04:28:46;;;;;;;40.90;20.70;;;;;;;;;;5012050;28;20411;-85
2021/03/02 04:31:12;;;;;;;47.13;21.42;;;;;;;;;;5012086;28;20418;-86
2021/03/02 04:33:38;;;;;;;34.00;20.33;;;;;;;;;;5011900;28;20387;-86
2021/03/02 04:36:04;;;;;;;38.95;21.23;;;;;;;;;;5011902;28;20375;-91
2021/03/02 04:38:30;;;;;;;41.67;21.38;;;;;;;;;;5011968;28;20383;-88
2021/03/02 04:40:56;;;;;;;33.65;20.00;;;;;;;;;;5011692;28;20401;-85
2021/03/02 04:43:22;;;;;;;42.97;20.80;;;;;;;;;;5013185;28;20375;-86
2021/03/02 04:45:48;;;;;;;49.13;22.50;;;;;;;;;;5011791;28;20908;-86
2021/03/02 04:48:14;;;;;;;81.88;27.58;;;;;;;;;;5011661;28;20421;-89
2021/03/02 04:50:40;;;;;;;96.63;30.73;;;;;;;;;;5011619;28;20449;-87
2021/03/02 04:53:06;;;;;;;41.03;20.60;;;;;;;;;;5011714;28;20892;-89
2021/03/02 04:55:32;;;;;;;68.25;25.45;;;;;;;;;;5010668;28;20371;-88
2021/03/02 04:57:58;;;;;;;50.08;24.60;;;;;;;;;;5011549;28;20379;-88
2021/03/02 05:00:25;;;;;;;56.10;26.67;;;;;;;;;;5012734;28;20432;-89
2021/03/02 05:02:51;;;;;;;81.10;30.05;;;;;;;;;;5011533;28;20395;-86
2021/03/02 05:05:17;;;;;;;69.83;28.30;;;;;;;;;;5011558;28;20464;-85
2021/03/02 05:07:43;;;;;;;69.57;28.98;;;;;;;;;;5011342;28;20403;-89
2021/03/02 05:10:09;;;;;;;57.45;23.73;;;;;;;;;;5011614;28;20434;-85
2021/03/02 05:12:35;;;;;;;54.88;25.05;;;;;;;;;;5011231;28;20457;-86
2021/03/02 05:15:01;;;;;;;78.00;26.95;;;;;;;;;;5011161;28;20880;-92
2021/03/02 05:17:27;;;;;;;67.50;26.20;;;;;;;;;;5012407;28;20421;-86
2021/03/02 05:19:53;;;;;;;106.90;28.17;;;;;;;;;;5014050;28;20772;-82
2021/03/02 05:22:19;;;;;;;117.03;31.15;;;;;;;;;;5012163;28;20371;-86
2021/03/02 05:24:45;;;;;;;71.88;25.38;;;;;;;;;;5013658;28;20398;-90
2021/03/02 05:27:11;;;;;;;66.53;26.23;;;;;;;;;;5012123;28;20462;-85
2021/03/02 05:29:37;;;;;;;52.58;24.35;;;;;;;;;;5011226;28;20379;-91
2021/03/02 05:32:04;;;;;;;76.53;27.90;;;;;;;;;;5012152;28;20376;-87
2021/03/02 05:34:30;;;;;;;48.28;25.17;;;;;;;;;;5010792;28;20402;-88
2021/03/02 05:36:56;;;;;;;62.58;26.42;;;;;;;;;;5010911;28;20372;-88
2021/03/02 05:39:22;;;;;;;46.75;24.23;;;;;;;;;;5013927;28;20924;-85
2021/03/02 05:41:48;;;;;;;66.35;28.20;;;;;;;;;;5012271;28;20477;-86
2021/03/02 05:44:14;;;;;;;58.15;26.13;;;;;;;;;;5023726;28;20383;-84
2021/03/02 05:46:42;;;;;;;57.47;25.90;;;;;;;;;;5011491;28;20485;-83
2021/03/02 05:49:11;;;;;;;93.43;29.10;;;;;;;;;;5021803;28;20435;-84
2021/03/02 05:51:38;;;;;;;33.03;21.73;;;;;;;;;;5008116;28;20411;-82
2021/03/02 05:54:05;;;;;;;33.08;21.70;;;;;;;;;;5010864;28;20425;-81
2021/03/02 05:56:34;;;;;;;54.10;24.47;;;;;;;;;;5017905;28;20752;-87
2021/03/02 05:59:00;;;;;;;46.10;22.83;;;;;;;;;;5021581;28;20387;-86
2021/03/02 06:01:26;;;;;;;59.15;24.23;;;;;;;;;;5025597;28;20394;-84
2021/03/02 06:03:52;;;;;;;41.90;21.85;;;;;;;;;;5027455;28;20387;-84
2021/03/02 06:06:18;;;;;;;67.65;24.58;;;;;;;;;;5009358;28;20407;-84
2021/03/02 06:08:45;;;;;;;44.30;19.77;;;;;;;;;;5010803;28;20379;-84
2021/03/02 06:11:24;;;;;;;86.50;26.17;;;;;;;;;;5010740;28;20494;-84
2021/03/02 06:13:50;;;;;;;94.28;26.63;;;;;;;;;;5022192;28;20386;-85
2021/03/02 06:16:16;;;;;;;56.47;20.88;;;;;;;;;;5013992;28;20438;-85
2021/03/02 06:18:49;;;;;;;74.33;25.47;;;;;;;;;;5009178;28;20380;-83
2021/03/02 06:21:15;;;;;;;61.28;23.20;;;;;;;;;;5011332;28;20376;-84
2021/03/02 06:23:49;;;;;;;95.25;26.02;;;;;;;;;;5010200;28;20385;-84
2021/03/02 06:26:26;;;;;;;73.25;22.52;;;;;;;;;;5008667;28;20423;-85
2021/03/02 06:28:53;;;;;;;67.53;22.42;;;;;;;;;;5010014;28;20441;-86
2021/03/02 06:31:39;;;;;;;121.38;28.60;;;;;;;;;;5014379;28;20407;-84
2021/03/02 06:34:15;;;;;;;117.53;27.60;;;;;;;;;;5016769;28;20406;-84
2021/03/02 06:36:43;;;;;;;45.25;20.20;;;;;;;;;;5016252;28;20401;-85
2021/03/02 06:39:26;;;;;;;82.07;23.87;;;;;;;;;;5013251;28;20379;-83
2021/03/02 06:41:53;;;;;;;71.55;23.10;;;;;;;;;;5011415;28;20868;-85
2021/03/02 06:44:19;;;;;;;44.05;19.95;;;;;;;;;;5010635;28;20836;-85
2021/03/02 06:46:46;;;;;;;68.85;21.27;;;;;;;;;;5010642;28;20881;-84
2021/03/02 06:49:12;;;;;;;65.70;21.75;;;;;;;;;;5009756;28;20371;-84
2021/03/02 06:51:39;;;;;;;40.67;18.13;;;;;;;;;;5009470;28;20437;-84
2021/03/02 06:54:05;;;;;;;53.85;20.38;;;;;;;;;;5010786;28;20873;-83
2021/03/02 06:56:31;;;;;;;60.40;19.80;;;;;;;;;;5009391;28;20379;-84
2021/03/02 06:59:09;;;;;;;111.20;24.13;;;;;;;;;;5009383;28;20507;-84
2021/03/02 07:01:35;;;;;;;51.13;18.60;;;;;;;;;;5010775;28;20437;-85
2021/03/02 07:04:17;;;;;;;61.03;20.70;;;;;;;;;;5009592;28;20442;-81
2021/03/02 07:06:43;;;;;;;86.40;23.33;;;;;;;;;;5013345;28;20893;-82
2021/03/02 07:09:10;;;;;;;92.53;22.73;;;;;;;;;;5010742;28;20371;-82
2021/03/02 07:11:37;;;;;;;49.17;19.80;;;;;;;;;;5010613;28;20395;-84
2021/03/02 07:14:05;;;;;;;76.85;21.50;;;;;;;;;;5010488;28;20383;-84
2021/03/02 07:16:31;;;;;;;58.70;21.15;;;;;;;;;;5010298;28;20933;-86
2021/03/02 07:18:59;;;;;;;46.70;19.20;;;;;;;;;;5010801;28;20375;-86
2021/03/02 07:21:27;;;;;;;69.03;22.67;;;;;;;;;;5014145;28;20409;-86
2021/03/02 07:23:55;;;;;;;67.73;22.30;;;;;;;;;;5012955;28;20456;-84
2021/03/02 07:26:21;;;;;;;58.63;22.67;;;;;;;;;;5012645;28;20482;-84
2021/03/02 07:28:47;;;;;;;73.57;22.52;;;;;;;;;;5014340;28;20403;-84
2021/03/02 07:31:15;;;;;;;83.30;22.83;;;;;;;;;;5014040;28;20442;-85
2021/03/02 07:33:41;;;;;;;72.07;21.92;;;;;;;;;;5012810;28;20907;-86
2021/03/02 07:36:07;;;;;;;81.85;23.92;;;;;;;;;;5012935;28;20375;-83
2021/03/02 07:38:37;;;;;;;91.27;23.87;;;;;;;;;;5014072;28;20402;-85
2021/03/02 07:41:03;;;;;;;66.40;21.52;;;;;;;;;;5024893;28;20375;-83
2021/03/02 07:43:31;;;;;;;66.45;20.90;;;;;;;;;;5020701;28;20864;-84
2021/03/02 07:45:57;;;;;;;72.20;22.77;;;;;;;;;;5017081;28;20494;-84
2021/03/02 07:48:27;;;;;;;67.50;21.83;;;;;;;;;;5012532;28;20434;-83
2021/03/02 07:51:13;;;;;;;49.10;20.25;;;;;;;;;;5013921;28;20983;-84
2021/03/02 07:53:39;;;;;;;50.97;21.27;;;;;;;;;;5012333;28;20897;-84
2021/03/02 07:56:15;;;;;;;135.68;27.23;;;;;;;;;;5013704;28;20376;-81
2021/03/02 07:58:42;;;;;;;81.90;24.88;;;;;;;;;;5025045;28;20405;-84
2021/03/02 08:01:21;;;;;;;36.87;19.13;;;;;;;;;;5011774;28;20480;-84
2021/03/02 08:03:47;;;;;;;75.82;23.25;;;;;;;;;;5022310;28;20377;-90
2021/03/02 08:06:23;;;;;;;46.42;19.30;;;;;;;;;;5025958;28;20474;-83
2021/03/02 08:08:49;;;;;;;73.72;22.50;;;;;;;;;;5012221;28;20387;-84
2021/03/02 08:11:30;;;;;;;59.92;20.15;;;;;;;;;;5029663;28;20408;-85
2021/03/02 08:13:56;;;;;;;48.88;20.25;;;;;;;;;;5033677;28;20747;-87
2021/03/02 08:16:41;;;;;;;70.93;21.88;;;;;;;;;;5021141;28;20386;-84
2021/03/02 08:19:26;;;;;;;55.55;23.48;;;;;;;;;;5021406;28;20388;-85
2021/03/02 08:21:52;;;;;;;85.93;24.65;;;;;;;;;;5013565;28;20873;-87
2021/03/02 08:24:18;;;;;;;81.00;24.60;;;;;;;;;;5032547;28;20799;-85
2021/03/02 08:26:44;;;;;;;110.87;27.83;;;;;;;;;;5030649;28;20397;-83
2021/03/02 08:29:17;;;;;;;62.45;23.25;;;;;;;;;;5031777;28;20377;-84
2021/03/02 08:31:48;;;;;;;69.75;22.52;;;;;;;;;;5030043;28;20401;-90
2021/03/02 08:34:15;;;;;;;52.38;19.05;;;;;;;;;;5031184;28;20389;-83
2021/03/02 08:36:41;;;;;;;56.47;21.30;;;;;;;;;;5032702;28;20871;-82
2021/03/02 08:39:08;;;;;;;59.08;23.35;;;;;;;;;;5032837;28;20836;-87
2021/03/02 08:41:35;;;;;;;61.60;23.15;;;;;;;;;;5032827;28;20405;-84
2021/03/02 08:44:01;;;;;;;53.00;22.67;;;;;;;;;;5031501;28;20871;-83
2021/03/02 08:46:29;;;;;;;49.45;22.85;;;;;;;;;;5032723;28;20366;-85
2021/03/02 08:48:55;;;;;;;58.80;22.38;;;;;;;;;;5032645;28;20416;-84
2021/03/02 08:51:22;;;;;;;62.33;24.10;;;;;;;;;;5032685;28;20409;-84
2021/03/02 08:53:49;;;;;;;50.88;20.80;;;;;;;;;;5032434;28;20443;-84
2021/03/02 08:56:25;;;;;;;43.17;21.55;;;;;;;;;;5028908;28;20382;-83
2021/03/02 08:58:55;;;;;;;48.55;21.05;;;;;;;;;;5011936;28;20388;-84
2021/03/02 09:01:24;;;;;;;40.35;20.23;;;;;;;;;;5029457;28;20419;-84
2021/03/02 09:03:51;;;;;;;43.28;22.17;;;;;;;;;;5031973;28;20373;-81
2021/03/02 09:06:24;;;;;;;49.10;21.90;;;;;;;;;;5031856;28;20381;-84
2021/03/02 09:09:01;;;;;;;28.52;20.17;;;;;;;;;;5032068;28;20369;-83
2021/03/02 09:11:46;;;;;;;28.73;20.53;;;;;;;;;;5010781;28;20415;-83
2021/03/02 09:14:13;;;;;;;33.65;19.30;;;;;;;;;;5023468;28;20381;-86
2021/03/02 09:16:46;;;;;;;42.92;21.77;;;;;;;;;;5012096;28;20888;-85
2021/03/02 09:19:14;;;;;;;42.13;22.13;;;;;;;;;;5010564;28;20719;-84
2021/03/02 09:21:44;;;;;;;29.05;20.33;;;;;;;;;;5011892;28;20375;-84
2021/03/02 09:24:12;;;;;;;35.17;20.35;;;;;;;;;;5025365;28;20444;-85
2021/03/02 09:26:38;;;;;;;32.28;19.13;;;;;;;;;;5029484;28;20385;-82
2021/03/02 09:29:07;;;;;;;27.23;19.15;;;;;;;;;;5027281;28;20397;-82
2021/03/02 09:31:33;;;;;;;28.92;19.67;;;;;;;;;;5030606;28;20459;-85
2021/03/02 09:33:59;;;;;;;31.83;19.77;;;;;;;;;;5019348;28;20395;-86
2021/03/02 09:36:26;;;;;;;40.63;19.60;;;;;;;;;;5009417;28;20379;-83
2021/03/02 09:38:53;;;;;;;44.63;19.65;;;;;;;;;;5022456;28;20734;-83
2021/03/02 09:41:35;;;;;;;34.00;20.10;;;;;;;;;;5024438;28;20385;-84
2021/03/02 09:44:17;;;;;;;35.67;20.92;;;;;;;;;;5028880;28;20500;-82
2021/03/02 09:46:43;;;;;;;26.95;20.48;;;;;;;;;;5018715;28;20398;-84
2021/03/02 09:49:09;;;;;;;31.37;23.37;;;;;;;;;;5026471;28;20382;-84
2021/03/02 09:51:35;;;;;;;42.72;24.80;;;;;;;;;;5028876;28;20397;-83
2021/03/02 09:54:10;;;;;;;36.78;24.73;;;;;;;;;;5030240;28;20439;-84
2021/03/02 09:56:36;;;;;;;31.27;22.98;;;;;;;;;;5030507;28;20726;-81
2021/03/02 09:59:02;;;;;;;30.45;22.75;;;;;;;;;;5028731;28;20892;-85
2021/03/02 10:01:28;;;;;;;26.35;21.70;;;;;;;;;;5028636;28;20473;-82
2021/03/02 10:03:54;;;;;;;25.97;21.10;;;;;;;;;;5022200;28;20466;-83
2021/03/02 10:06:27;;;;;;;30.63;21.83;;;;;;;;;;5029345;28;20739;-84
2021/03/02 10:08:53;;;;;;;28.45;22.50;;;;;;;;;;5025313;28;20402;-82
2021/03/02 10:11:20;;;;;;;27.53;21.73;;;;;;;;;;5028614;28;20529;-83
2021/03/02 10:13:46;;;;;;;28.35;22.08;;;;;;;;;;5030498;28;20370;-84
2021/03/02 10:16:24;;;;;;;28.27;20.80;;;;;;;;;;5029774;28;20396;-84
2021/03/02 10:18:50;;;;;;;24.95;20.92;;;;;;;;;;5028967;28;20456;-86
2021/03/02 10:21:16;;;;;;;26.40;21.40;;;;;;;;;;5030079;28;20915;-85
2021/03/02 10:23:53;;;;;;;27.77;21.77;;;;;;;;;;5027856;28;20385;-87
2021/03/02 10:26:20;;;;;;;25.58;21.77;;;;;;;;;;4975898;28;1306966;-83
2021/03/02 10:28:48;;;;;;;26.27;21.50;;;;;;;;;;5030582;28;20443;-86
2021/03/02 10:31:15;;;;;;;27.20;22.13;;;;;;;;;;5023880;28;20403;-83
2021/03/02 10:33:41;;;;;;;24.50;20.23;;;;;;;;;;5032827;28;20357;-85
2021/03/02 10:36:15;;;;;;;26.73;22.23;;;;;;;;;;5027554;28;20757;-86
2021/03/02 10:38:41;;;;;;;27.80;22.63;;;;;;;;;;5026545;28;20391;-82
2021/03/02 10:41:07;;;;;;;28.23;23.23;;;;;;;;;;5030617;28;20402;-83
2021/03/02 10:43:33;;;;;;;27.35;23.25;;;;;;;;;;5024038;28;20375;-84
2021/03/02 10:45:59;;;;;;;26.88;23.10;;;;;;;;;;5029004;28;20395;-87
2021/03/02 10:48:25;;;;;;;26.58;22.92;;;;;;;;;;5035953;28;20390;-86
2021/03/02 10:50:51;;;;;;;27.90;22.70;;;;;;;;;;5036921;28;20406;-83
2021/03/02 10:53:17;;;;;;;27.98;22.95;;;;;;;;;;5024400;28;20882;-84
2021/03/02 10:55:43;;;;;;;27.90;23.38;;;;;;;;;;5050134;28;20466;-83
2021/03/02 10:58:09;;;;;;;28.92;23.63;;;;;;;;;;5039491;28;20364;-83
2021/03/02 11:00:35;;;;;;;25.30;21.33;;;;;;;;;;5044087;28;20492;-85
2021/03/02 11:03:01;;;;;;;22.98;20.48;;;;;;;;;;5026276;28;20471;-82
2021/03/02 11:05:27;;;;;;;24.30;20.58;;;;;;;;;;5036204;28;20893;-87
2021/03/02 11:07:53;;;;;;;25.92;21.33;;;;;;;;;;5023069;28;20391;-87
2021/03/02 11:10:19;;;;;;;25.02;21.55;;;;;;;;;;5031716;28;20790;-83
2021/03/02 11:12:45;;;;;;;22.02;19.63;;;;;;;;;;5037154;28;20391;-84
2021/03/02 11:15:12;;;;;;;22.25;19.83;;;;;;;;;;5027480;28;20421;-84
2021/03/02 11:17:39;;;;;;;25.33;21.35;;;;;;;;;;5030732;28;20887;-86
2021/03/02 11:20:06;;;;;;;24.83;21.15;;;;;;;;;;5022397;28;20379;-82
2021/03/02 11:22:32;;;;;;;23.35;20.60;;;;;;;;;;5008749;28;20397;-83
2021/03/02 11:24:58;;;;;;;23.23;20.73;;;;;;;;;;5029777;28;20374;-81
2021/03/02 11:27:24;;;;;;;26.63;21.67;;;;;;;;;;5026285;28;20385;-84
2021/03/02 11:29:50;;;;;;;24.67;20.83;;;;;;;;;;5032171;28;20467;-84
2021/03/02 11:32:16;;;;;;;23.88;20.50;;;;;;;;;;5033176;28;20880;-83
2021/03/02 11:34:42;;;;;;;24.30;21.20;;;;;;;;;;5032262;28;20416;-84
2021/03/02 11:37:08;;;;;;;25.10;20.95;;;;;;;;;;5034426;28;20472;-85
2021/03/02 11:39:34;;;;;;;25.63;21.92;;;;;;;;;;5033864;28;20365;-86
2021/03/02 11:42:00;;;;;;;24.73;20.95;;;;;;;;;;5025298;28;20402;-85
2021/03/02 11:44:30;;;;;;;24.33;20.85;;;;;;;;;;5013724;28;20398;-84
2021/03/02 11:46:56;;;;;;;25.23;22.40;;;;;;;;;;5032516;28;20756;-82
2021/03/02 11:49:22;;;;;;;28.13;22.40;;;;;;;;;;5033604;28;20366;-88
2021/03/02 11:51:48;;;;;;;26.88;23.67;;;;;;;;;;5021030;28;20416;-83
2021/03/02 11:54:14;;;;;;;25.93;21.97;;;;;;;;;;5027982;28;20872;-83
2021/03/02 11:56:40;;;;;;;27.33;23.53;;;;;;;;;;5012565;28;20444;-82
2021/03/02 11:59:06;;;;;;;29.02;23.80;;;;;;;;;;5026486;28;20389;-82
2021/03/02 12:01:32;;;;;;;28.02;23.70;;;;;;;;;;5030070;28;20524;-85
2021/03/02 12:03:59;;;;;;;28.23;23.13;;;;;;;;;;5021332;28;20714;-84
2021/03/02 12:06:25;;;;;;;28.10;23.60;;;;;;;;;;5013121;28;20394;-84
2021/03/02 12:08:51;;;;;;;27.92;23.88;;;;;;;;;;5038633;28;20428;-84
2021/03/02 12:11:18;;;;;;;26.25;22.75;;;;;;;;;;5026409;28;20424;-82
2021/03/02 12:13:44;;;;;;;27.23;23.00;;;;;;;;;;5034243;28;20389;-84
2021/03/02 12:16:10;;;;;;;27.00;22.63;;;;;;;;;;5034297;28;20388;-83
2021/03/02 12:18:36;;;;;;;25.85;21.00;;;;;;;;;;5032743;28;20358;-84
2021/03/02 12:21:02;;;;;;;29.13;23.30;;;;;;;;;;5031158;28;20929;-82
2021/03/02 12:23:28;;;;;;;25.27;21.35;;;;;;;;;;5032548;28;20381;-85
2021/03/02 12:25:54;;;;;;;25.13;20.98;;;;;;;;;;5030983;28;20895;-84
2021/03/02 12:28:20;;;;;;;24.92;21.08;;;;;;;;;;5031099;28;20381;-85
2021/03/02 12:30:46;;;;;;;22.80;19.83;;;;;;;;;;5032433;28;20911;-84
2021/03/02 12:33:12;;;;;;;23.13;20.63;;;;;;;;;;5032678;28;20392;-84
2021/03/02 12:35:38;;;;;;;25.88;21.65;;;;;;;;;;5031152;28;20409;-83
2021/03/02 12:38:05;;;;;;;22.98;20.25;;;;;;;;;;5031349;28;20472;-85
2021/03/02 12:40:31;;;;;;;24.00;19.25;;;;;;;;;;5031148;28;20393;-83
2021/03/02 12:42:57;;;;;;;22.83;18.70;;;;;;;;;;5032770;28;20396;-85
2021/03/02 12:45:23;;;;;;;24.20;20.90;;;;;;;;;;5032386;28;20382;-85
2021/03/02 12:47:49;;;;;;;22.70;20.10;;;;;;;;;;5031163;28;20389;-84
2021/03/02 12:50:15;;;;;;;24.40;20.73;;;;;;;;;;5030969;28;20435;-85
2021/03/02 12:52:41;;;;;;;25.53;20.37;;;;;;;;;;5031070;28;20892;-85
2021/03/02 12:55:08;;;;;;;23.73;19.48;;;;;;;;;;5032385;28;20370;-85
2021/03/02 12:57:34;;;;;;;22.67;19.55;;;;;;;;;;5030758;28;20389;-82
2021/03/02 13:00:00;;;;;;;24.20;20.20;;;;;;;;;;5032118;28;20374;-82
2021/03/02 13:02:28;;;;;;;24.55;20.38;;;;;;;;;;5030649;28;20381;-85
2021/03/02 13:04:54;;;;;;;24.80;20.88;;;;;;;;;;5031561;28;20964;-84
2021/03/02 13:07:20;;;;;;;24.50;20.23;;;;;;;;;;5023967;28;20902;-82
2021/03/02 13:09:46;;;;;;;25.17;20.45;;;;;;;;;;5027977;28;20400;-84
2021/03/02 13:12:12;;;;;;;24.38;20.92;;;;;;;;;;5014448;28;20405;-88
2021/03/02 13:14:40;;;;;;;22.23;19.42;;;;;;;;;;5029937;28;20464;-83
2021/03/02 13:17:06;;;;;;;22.27;19.88;;;;;;;;;;5029986;28;20443;-85
2021/03/02 13:19:38;;;;;;;23.67;20.27;;;;;;;;;;5023901;28;20383;-84
2021/03/02 13:22:05;;;;;;;23.00;19.48;;;;;;;;;;5020434;28;20381;-84
2021/03/02 13:24:31;;;;;;;23.35;18.58;;;;;;;;;;5021875;28;20383;-87
2021/03/02 13:26:59;;;;;;;21.92;19.45;;;;;;;;;;5020503;28;20487;-84
2021/03/02 13:29:27;;;;;;;21.77;18.90;;;;;;;;;;5020099;28;20417;-85
2021/03/02 13:31:53;;;;;;;20.45;18.08;;;;;;;;;;5019977;28;20934;-86
2021/03/02 13:34:21;;;;;;;21.85;17.58;;;;;;;;;;5022187;28;20385;-84
2021/03/02 13:36:48;;;;;;;21.25;18.25;;;;;;;;;;5024798;28;20383;-84
2021/03/02 13:39:16;;;;;;;21.25;17.95;;;;;;;;;;5018095;28;20391;-85
2021/03/02 13:41:49;;;;;;;21.02;17.80;;;;;;;;;;5024861;28;20365;-84
2021/03/02 13:44:19;;;;;;;18.60;16.15;;;;;;;;;;5020222;28;20389;-85
2021/03/02 13:46:54;;;;;;;19.00;16.75;;;;;;;;;;5021789;28;20379;-81
2021/03/02 13:49:20;;;;;;;18.48;16.52;;;;;;;;;;5031430;28;20379;-82
2021/03/02 13:51:47;;;;;;;17.48;14.88;;;;;;;;;;5019980;28;20459;-87
2021/03/02 13:54:14;;;;;;;17.20;14.10;;;;;;;;;;5017997;28;20376;-86
2021/03/02 13:56:41;;;;;;;15.77;13.18;;;;;;;;;;5021251;28;20382;-85
2021/03/02 13:59:07;;;;;;;15.40;13.80;;;;;;;;;;5025335;28;20376;-83
2021/03/02 14:01:33;;;;;;;19.52;14.07;;;;;;;;;;5021096;28;20447;-85
2021/03/02 14:04:03;;;;;;;16.63;13.05;;;;;;;;;;5020633;28;20377;-88
2021/03/02 14:06:29;;;;;;;14.48;12.77;;;;;;;;;;5022485;28;20393;-83
2021/03/02 14:08:56;;;;;;;14.75;12.05;;;;;;;;;;5022176;28;20401;-83
2021/03/02 14:11:23;;;;;;;14.27;12.15;;;;;;;;;;5018046;28;20430;-84
2021/03/02 14:13:51;;;;;;;14.52;12.35;;;;;;;;;;5014425;28;20409;-87
2021/03/02 14:16:19;;;;;;;14.40;11.68;;;;;;;;;;5010444;28;20896;-83
2021/03/02 14:18:49;;;;;;;10.07;8.02;;;;;;;;;;5024616;28;20408;-84